ANZAC1 YWLM-YSSY
Flight info
| Callsign | ANZAC1 |
|---|---|
| Flight time | 0h 17m |
| Altitude | 16000 |
| Route | DCT |
| Aircraft | EUFI/M-SBDE3FGHRWXYI/S |
Departure
| Time | 2026-04-25 04:58 |
|---|---|
| Airport | Newcastle Airport (YWLM) |
Arrival
| Time | 2026-04-25 05:15 |
|---|---|
| Airport | Sydney Kingsford Smith International Airport (YSSY) |
| Time | Latitude | Longitude | Altitude | Speed | Heading |
|---|---|---|---|---|---|
| 2026-04-25 04:42 | -32.79629 | 151.84369 | 31 ft | 0 kts | 325° |
| 2026-04-25 04:49 | -32.79626 | 151.84366 | 31 ft | 3 kts | 324° |
| 2026-04-25 04:49 | -32.79624 | 151.84364 | 31 ft | 0 kts | 324° |
| 2026-04-25 04:51 | -32.79621 | 151.84357 | 31 ft | 3 kts | 290° |
| 2026-04-25 04:52 | -32.79613 | 151.84317 | 31 ft | 7 kts | 309° |
| 2026-04-25 04:52 | -32.79625 | 151.84241 | 31 ft | 13 kts | 235° |
| 2026-04-25 04:52 | -32.79683 | 151.84145 | 31 ft | 16 kts | 235° |
| 2026-04-25 04:52 | -32.79748 | 151.84026 | 31 ft | 15 kts | 258° |
| 2026-04-25 04:53 | -32.79686 | 151.83910 | 31 ft | 20 kts | 308° |
| 2026-04-25 04:53 | -32.79582 | 151.83765 | 31 ft | 23 kts | 310° |
| 2026-04-25 04:53 | -32.79464 | 151.83598 | 31 ft | 23 kts | 310° |
| 2026-04-25 04:53 | -32.79343 | 151.83432 | 31 ft | 30 kts | 310° |
| 2026-04-25 04:54 | -32.79192 | 151.83218 | 31 ft | 37 kts | 309° |
| 2026-04-25 04:54 | -32.79013 | 151.82965 | 32 ft | 43 kts | 309° |
| 2026-04-25 04:54 | -32.78810 | 151.82683 | 31 ft | 41 kts | 311° |
| 2026-04-25 04:54 | -32.78650 | 151.82457 | 31 ft | 27 kts | 309° |
| 2026-04-25 04:55 | -32.78629 | 151.82365 | 31 ft | 1 kts | 242° |
| 2026-04-25 04:55 | -32.78634 | 151.82356 | 31 ft | 1 kts | 233° |
| 2026-04-25 04:55 | -32.78639 | 151.82349 | 31 ft | 0 kts | 232° |
| 2026-04-25 04:56 | -32.78640 | 151.82347 | 31 ft | 0 kts | 232° |
| 2026-04-25 04:57 | -32.78659 | 151.82326 | 31 ft | 8 kts | 219° |
| 2026-04-25 04:57 | -32.78782 | 151.82353 | 32 ft | 68 kts | 130° |
| 2026-04-25 04:58 | -32.79659 | 151.83563 | 244 ft | 270 kts | 130° |
| 2026-04-25 04:58 | -32.81202 | 151.84715 | 2341 ft | 285 kts | 178° |
| 2026-04-25 04:58 | -32.83110 | 151.84390 | 5036 ft | 324 kts | 195° |
| 2026-04-25 04:58 | -32.85351 | 151.83192 | 6011 ft | 444 kts | 204° |
| 2026-04-25 04:59 | -32.88469 | 151.81689 | 7956 ft | 537 kts | 201° |
| 2026-04-25 04:59 | -32.91842 | 151.79698 | 11322 ft | 583 kts | 210° |
| 2026-04-25 04:59 | -32.94983 | 151.77266 | 12544 ft | 509 kts | 213° |
| 2026-04-25 04:59 | -32.97779 | 151.75093 | 12509 ft | 455 kts | 206° |
| 2026-04-25 05:00 | -33.00569 | 151.73766 | 12447 ft | 426 kts | 195° |
| 2026-04-25 05:00 | -33.04304 | 151.72015 | 13075 ft | 450 kts | 197° |
| 2026-04-25 05:00 | -33.06273 | 151.71014 | 12227 ft | 474 kts | 205° |
| 2026-04-25 05:00 | -33.09560 | 151.69047 | 13764 ft | 600 kts | 205° |
| 2026-04-25 05:01 | -33.13429 | 151.66772 | 14389 ft | 598 kts | 205° |
| 2026-04-25 05:01 | -33.16858 | 151.64764 | 14119 ft | 563 kts | 203° |
| 2026-04-25 05:01 | -33.20090 | 151.62747 | 12387 ft | 494 kts | 209° |
| 2026-04-25 05:01 | -33.22660 | 151.60548 | 12205 ft | 437 kts | 217° |
| 2026-04-25 05:02 | -33.24892 | 151.58301 | 9624 ft | 442 kts | 234° |
| 2026-04-25 05:02 | -33.25983 | 151.55261 | 9544 ft | 394 kts | 248° |
| 2026-04-25 05:02 | -33.26968 | 151.52380 | 5342 ft | 398 kts | 245° |
| 2026-04-25 05:02 | -33.28082 | 151.49528 | 4272 ft | 379 kts | 248° |
| 2026-04-25 05:03 | -33.29177 | 151.46835 | 2822 ft | 319 kts | 234° |
| 2026-04-25 05:03 | -33.30646 | 151.45171 | 3924 ft | 325 kts | 216° |
| 2026-04-25 05:03 | -33.32911 | 151.43326 | 5370 ft | 407 kts | 212° |
| 2026-04-25 05:03 | -33.35339 | 151.41646 | 5206 ft | 410 kts | 206° |
| 2026-04-25 05:04 | -33.37377 | 151.39369 | 4146 ft | 415 kts | 242° |
| 2026-04-25 05:04 | -33.38852 | 151.35886 | 4937 ft | 493 kts | 244° |
| 2026-04-25 05:04 | -33.40385 | 151.32124 | 5395 ft | 525 kts | 244° |
| 2026-04-25 05:04 | -33.41982 | 151.28087 | 5003 ft | 524 kts | 245° |
| 2026-04-25 05:05 | -33.43397 | 151.24303 | 4607 ft | 475 kts | 247° |
| 2026-04-25 05:05 | -33.44687 | 151.20726 | 4593 ft | 462 kts | 248° |
| 2026-04-25 05:05 | -33.45908 | 151.17210 | 4858 ft | 449 kts | 248° |
| 2026-04-25 05:05 | -33.47152 | 151.13495 | 4873 ft | 479 kts | 249° |
| 2026-04-25 05:06 | -33.48471 | 151.09341 | 4629 ft | 587 kts | 250° |
| 2026-04-25 05:06 | -33.49825 | 151.04787 | 4195 ft | 563 kts | 252° |
| 2026-04-25 05:06 | -33.51071 | 151.00462 | 4342 ft | 543 kts | 248° |
| 2026-04-25 05:06 | -33.52687 | 150.96374 | 5025 ft | 579 kts | 244° |
| 2026-04-25 05:07 | -33.54395 | 150.92148 | 4908 ft | 541 kts | 245° |
| 2026-04-25 05:07 | -33.55861 | 150.88051 | 4328 ft | 501 kts | 248° |
| 2026-04-25 05:07 | -33.57124 | 150.84341 | 4197 ft | 479 kts | 248° |
| 2026-04-25 05:07 | -33.58665 | 150.80997 | 2598 ft | 463 kts | 235° |
| 2026-04-25 05:08 | -33.61264 | 150.80226 | 3528 ft | 381 kts | 165° |
| 2026-04-25 05:08 | -33.63698 | 150.81250 | 3510 ft | 381 kts | 144° |
| 2026-04-25 05:08 | -33.65466 | 150.83566 | 3239 ft | 391 kts | 121° |
| 2026-04-25 05:08 | -33.66752 | 150.86565 | 2959 ft | 424 kts | 114° |
| 2026-04-25 05:09 | -33.68273 | 150.90320 | 4397 ft | 526 kts | 115° |
| 2026-04-25 05:09 | -33.69751 | 150.93855 | 4217 ft | 435 kts | 116° |
| 2026-04-25 05:09 | -33.71102 | 150.96893 | 3314 ft | 405 kts | 117° |
| 2026-04-25 05:09 | -33.72399 | 150.99739 | 2208 ft | 365 kts | 119° |
| 2026-04-25 05:10 | -33.73394 | 151.02090 | 1901 ft | 293 kts | 112° |
| 2026-04-25 05:10 | -33.74259 | 151.04088 | 1469 ft | 249 kts | 117° |
| 2026-04-25 05:10 | -33.75018 | 151.05701 | 1358 ft | 207 kts | 116° |
| 2026-04-25 05:10 | -33.75675 | 151.07153 | 1069 ft | 179 kts | 114° |
| 2026-04-25 05:11 | -33.76154 | 151.08354 | 1125 ft | 139 kts | 112° |
| 2026-04-25 05:11 | -33.76637 | 151.09511 | 953 ft | 201 kts | 114° |
| 2026-04-25 05:11 | -33.77353 | 151.11026 | 1185 ft | 197 kts | 123° |
| 2026-04-25 05:12 | -33.79333 | 151.13619 | 1632 ft | 251 kts | 136° |
| 2026-04-25 05:12 | -33.80689 | 151.14700 | 1651 ft | 229 kts | 151° |
| 2026-04-25 05:12 | -33.82113 | 151.15494 | 1480 ft | 219 kts | 155° |
| 2026-04-25 05:12 | -33.83493 | 151.16132 | 1661 ft | 219 kts | 155° |
| 2026-04-25 05:13 | -33.84954 | 151.16731 | 1651 ft | 237 kts | 163° |
| 2026-04-25 05:13 | -33.86510 | 151.17032 | 1304 ft | 231 kts | 172° |
| 2026-04-25 05:13 | -33.88102 | 151.17125 | 991 ft | 219 kts | 177° |
| 2026-04-25 05:13 | -33.89581 | 151.16927 | 609 ft | 199 kts | 186° |
| 2026-04-25 05:14 | -33.90791 | 151.16777 | 390 ft | 159 kts | 184° |
| 2026-04-25 05:14 | -33.91972 | 151.16884 | 185 ft | 200 kts | 157° |
| 2026-04-25 05:14 | -33.93361 | 151.17310 | 14 ft | 187 kts | 163° |
| 2026-04-25 05:15 | -33.95258 | 151.17787 | 15 ft | 79 kts | 173° |
| 2026-04-25 05:15 | -33.95636 | 151.17871 | 13 ft | 51 kts | 164° |
| 2026-04-25 05:15 | -33.95881 | 151.17873 | 13 ft | 11 kts | 234° |
| 2026-04-25 05:15 | -33.95900 | 151.17799 | 13 ft | 0 kts | 285° |
| 2026-04-25 05:16 | -33.95892 | 151.17766 | 13 ft | 8 kts | 297° |
| 2026-04-25 05:16 | -33.95837 | 151.17694 | 12 ft | 14 kts | 347° |
| 2026-04-25 05:16 | -33.95710 | 151.17674 | 13 ft | 22 kts | 348° |
| 2026-04-25 05:16 | -33.95549 | 151.17644 | 12 ft | 21 kts | 349° |
| 2026-04-25 05:17 | -33.95382 | 151.17598 | 12 ft | 27 kts | 339° |
| 2026-04-25 05:17 | -33.95179 | 151.17537 | 13 ft | 27 kts | 348° |
| 2026-04-25 05:17 | -33.94976 | 151.17482 | 16 ft | 33 kts | 347° |
| 2026-04-25 05:17 | -33.94812 | 151.17442 | 17 ft | 17 kts | 346° |
| 2026-04-25 05:18 | -33.94794 | 151.17438 | 17 ft | 2 kts | 349° |
| 2026-04-25 05:18 | -33.94745 | 151.17423 | 17 ft | 13 kts | 345° |
| 2026-04-25 05:18 | -33.94591 | 151.17381 | 18 ft | 32 kts | 350° |
| 2026-04-25 05:18 | -33.94392 | 151.17333 | 19 ft | 22 kts | 347° |
| 2026-04-25 05:19 | -33.94218 | 151.17287 | 18 ft | 30 kts | 348° |
| 2026-04-25 05:19 | -33.94064 | 151.17248 | 17 ft | 13 kts | 347° |
| 2026-04-25 05:19 | -33.93982 | 151.17239 | 16 ft | 11 kts | 28° |
| 2026-04-25 05:19 | -33.93959 | 151.17274 | 14 ft | 5 kts | 65° |
| 2026-04-25 05:20 | -33.93952 | 151.17296 | 13 ft | 0 kts | 77° |
| 2026-04-25 05:23 | -33.93950 | 151.17307 | 13 ft | 6 kts | 77° |
| 2026-04-25 05:23 | -33.93933 | 151.17404 | 10 ft | 17 kts | 75° |
| 2026-04-25 05:23 | -33.93888 | 151.17581 | 6 ft | 27 kts | 73° |
| 2026-04-25 05:23 | -33.93835 | 151.17801 | 6 ft | 27 kts | 75° |
| 2026-04-25 05:24 | -33.93790 | 151.18016 | 14 ft | 24 kts | 77° |
| 2026-04-25 05:24 | -33.93752 | 151.18158 | 17 ft | 16 kts | 76° |
| 2026-04-25 05:24 | -33.93712 | 151.18219 | 20 ft | 11 kts | 351° |
| 2026-04-25 05:24 | -33.93664 | 151.18178 | 19 ft | 6 kts | 263° |
| 2026-04-25 05:25 | -33.93675 | 151.18162 | 19 ft | 0 kts | 214° |